createdAt,value
2016-08-15T00:00:21.193Z,"  -70"
2016-08-15T00:05:19.243Z,"  -70"
2016-08-15T00:10:16.837Z,"  -70"
2016-08-15T00:15:14.437Z,"  -71"
2016-08-15T00:20:12.014Z,"  -70"
2016-08-15T00:25:09.846Z,"  -69"
2016-08-15T00:30:07.538Z,"  -70"
2016-08-15T00:35:05.178Z,"  -71"
2016-08-15T00:40:02.873Z,"  -71"
2016-08-15T00:45:00.676Z,"  -69"
2016-08-15T00:49:58.352Z,"  -69"
2016-08-15T00:54:55.955Z,"  -68"
2016-08-15T00:59:53.659Z,"  -70"
2016-08-15T01:04:51.516Z,"  -71"
2016-08-15T01:09:49.245Z,"  -72"
2016-08-15T01:14:46.844Z,"  -71"
2016-08-15T01:19:44.741Z,"  -72"
2016-08-15T01:24:42.501Z,"  -71"
2016-08-15T01:29:40.493Z,"  -70"
2016-08-15T01:34:38.172Z,"  -69"
2016-08-15T01:39:35.926Z,"  -70"
2016-08-15T01:44:33.770Z,"  -69"
2016-08-15T01:49:31.319Z,"  -70"
2016-08-15T01:54:29.068Z,"  -71"
2016-08-15T01:59:26.756Z,"  -70"
2016-08-15T02:04:24.380Z,"  -68"
2016-08-15T02:09:21.982Z,"  -69"
2016-08-15T02:14:19.581Z,"  -70"
2016-08-15T02:19:17.356Z,"  -71"
2016-08-15T02:24:15.193Z,"  -70"
2016-08-15T02:29:12.822Z,"  -70"
2016-08-15T02:34:10.429Z,"  -71"
2016-08-15T02:39:08.117Z,"  -69"
2016-08-15T02:44:05.938Z,"  -70"
2016-08-15T02:49:03.716Z,"  -71"
2016-08-15T02:54:01.502Z,"  -70"
2016-08-15T02:58:59.215Z,"  -71"
2016-08-15T03:03:56.757Z,"  -70"
2016-08-15T03:08:54.390Z,"  -70"
2016-08-15T03:13:52.002Z,"  -72"
2016-08-15T03:18:49.999Z,"  -69"
2016-08-15T03:23:47.578Z,"  -69"
2016-08-15T03:28:45.371Z,"  -72"
2016-08-15T03:33:43.379Z,"  -69"
2016-08-15T03:38:41.218Z,"  -70"
2016-08-15T03:43:38.940Z,"  -72"
2016-08-15T03:48:36.702Z,"  -70"
2016-08-15T03:53:34.565Z,"  -69"
2016-08-15T03:58:32.251Z,"  -70"
2016-08-15T04:03:30.246Z,"  -69"
2016-08-15T04:08:27.895Z,"  -69"
2016-08-15T04:13:25.564Z,"  -69"
2016-08-15T04:18:23.150Z,"  -70"
2016-08-15T04:23:20.609Z,"  -71"
2016-08-15T04:28:18.393Z,"  -70"
2016-08-15T04:33:16.121Z,"  -70"
2016-08-15T04:38:14.200Z,"  -69"
2016-08-15T04:43:11.849Z,"  -72"
2016-08-15T04:48:09.646Z,"  -72"
2016-08-15T04:53:07.418Z,"  -72"
2016-08-15T04:58:05.034Z,"  -72"
2016-08-15T05:03:02.664Z,"  -72"
2016-08-15T05:08:00.446Z,"  -72"
2016-08-15T05:12:58.247Z,"  -73"
2016-08-15T05:17:55.937Z,"  -72"
2016-08-15T05:22:53.687Z,"  -72"
2016-08-15T05:27:51.467Z,"  -72"
2016-08-15T05:32:49.459Z,"  -73"
2016-08-15T05:37:47.019Z,"  -72"
2016-08-15T05:42:44.910Z,"  -72"
2016-08-15T05:47:42.782Z,"  -71"
2016-08-15T05:52:40.627Z,"  -72"
2016-08-15T05:57:38.185Z,"  -71"
2016-08-15T06:02:35.995Z,"  -73"
2016-08-15T06:07:33.729Z,"  -77"
2016-08-15T06:12:31.586Z,"  -80"
2016-08-15T06:17:29.291Z,"  -78"
2016-08-15T06:22:26.980Z,"  -77"
2016-08-15T06:27:24.680Z,"  -81"
2016-08-15T06:32:22.447Z,"  -81"
2016-08-15T06:37:20.264Z,"  -78"
2016-08-15T06:42:18.124Z,"  -74"
2016-08-15T06:47:15.963Z,"  -76"
2016-08-15T06:52:13.549Z,"  -79"
2016-08-15T06:57:11.040Z,"  -77"
2016-08-15T07:02:08.741Z,"  -78"
2016-08-15T07:07:06.356Z,"  -76"
2016-08-15T07:12:04.255Z,"  -77"
2016-08-15T07:17:01.979Z,"  -77"
2016-08-15T07:21:59.658Z,"  -76"
2016-08-15T07:26:57.598Z,"  -78"
2016-08-15T07:31:55.121Z,"  -74"
2016-08-15T07:36:53.138Z,"  -77"
2016-08-15T07:41:50.643Z,"  -74"
2016-08-15T07:46:48.818Z,"  -75"
2016-08-15T07:51:46.308Z,"  -73"
2016-08-15T07:56:44.245Z,"  -76"
2016-08-15T08:01:42.163Z,"  -76"
2016-08-15T08:06:39.897Z,"  -76"
2016-08-15T08:11:37.891Z,"  -75"
2016-08-15T08:16:36.373Z,"  -76"
2016-08-15T08:21:34.486Z,"  -78"
2016-08-15T08:26:32.738Z,"  -78"
2016-08-15T08:31:30.683Z,"  -76"
2016-08-15T08:36:28.757Z,"  -78"
2016-08-15T08:41:26.594Z,"  -79"
2016-08-15T08:46:24.207Z,"  -79"
2016-08-15T08:51:22.143Z,"  -79"
2016-08-15T08:56:19.455Z,"  -79"
2016-08-15T09:01:16.934Z,"  -79"
2016-08-15T09:06:14.357Z,"  -80"
2016-08-15T09:11:11.912Z,"  -78"
2016-08-15T09:16:09.615Z,"  -79"
2016-08-15T09:21:07.599Z,"  -75"
2016-08-15T09:26:05.260Z,"  -74"
2016-08-15T09:31:03.010Z,"  -74"
2016-08-15T09:36:00.739Z,"  -76"
2016-08-15T09:40:58.487Z,"  -77"
2016-08-15T09:45:56.387Z,"  -75"
2016-08-15T09:50:53.974Z,"  -75"
2016-08-15T09:55:51.451Z,"  -74"
2016-08-15T10:00:48.958Z,"  -75"
2016-08-15T10:05:46.979Z,"  -74"
2016-08-15T10:10:44.567Z,"  -76"
2016-08-15T10:15:42.374Z,"  -78"
2016-08-15T10:20:40.254Z,"  -75"
2016-08-15T10:25:37.808Z,"  -74"
2016-08-15T10:30:35.592Z,"  -75"
2016-08-15T10:35:33.342Z,"  -74"
2016-08-15T10:40:30.995Z,"  -75"
2016-08-15T10:45:28.592Z,"  -74"
2016-08-15T10:50:26.334Z,"  -74"
2016-08-15T10:55:23.921Z,"  -75"
2016-08-15T11:00:21.510Z,"  -79"
2016-08-15T11:05:19.104Z,"  -79"
2016-08-15T11:10:16.837Z,"  -78"
2016-08-15T11:15:14.395Z,"  -78"
2016-08-15T11:20:12.065Z,"  -78"
2016-08-15T11:25:09.754Z,"  -74"
2016-08-15T11:30:07.382Z,"  -75"
2016-08-15T11:35:05.052Z,"  -76"
2016-08-15T11:40:02.505Z,"  -78"
2016-08-15T11:45:00.097Z,"  -77"
2016-08-15T11:49:57.814Z,"  -79"
2016-08-15T11:54:55.689Z,"  -80"
2016-08-15T11:59:53.198Z,"  -78"
2016-08-15T12:04:51.066Z,"  -79"
2016-08-15T12:09:48.867Z,"  -78"
2016-08-15T12:14:46.525Z,"  -76"
2016-08-15T12:19:44.221Z,"  -79"
2016-08-15T12:24:41.979Z,"  -78"
2016-08-15T12:29:39.683Z,"  -79"
2016-08-15T12:34:37.232Z,"  -79"
2016-08-15T12:39:34.873Z,"  -78"
2016-08-15T12:44:32.471Z,"  -79"
2016-08-15T12:49:30.009Z,"  -76"
2016-08-15T12:54:27.599Z,"  -75"
2016-08-15T12:59:25.267Z,"  -76"
2016-08-15T13:04:22.880Z,"  -79"
2016-08-15T13:09:20.439Z,"  -76"
2016-08-15T13:14:18.182Z,"  -79"
2016-08-15T13:19:16.683Z,"  -78"
2016-08-15T13:24:14.043Z,"  -79"
2016-08-15T13:29:11.809Z,"  -76"
2016-08-15T13:34:09.425Z,"  -78"
2016-08-15T13:39:07.064Z,"  -79"
2016-08-15T13:44:04.560Z,"  -78"
2016-08-15T13:49:02.108Z,"  -80"
2016-08-15T13:53:59.606Z,"  -79"
2016-08-15T13:58:57.200Z,"  -79"
2016-08-15T14:03:54.779Z,"  -80"
2016-08-15T14:08:53.072Z,"  -79"
2016-08-15T14:13:50.980Z,"  -78"
2016-08-15T14:18:48.486Z,"  -78"
2016-08-15T14:23:45.957Z,"  -80"
2016-08-15T14:28:43.714Z,"  -79"
2016-08-15T14:33:41.387Z,"  -80"
2016-08-15T14:38:38.998Z,"  -74"
2016-08-15T14:43:37.098Z,"  -79"
2016-08-15T14:48:34.639Z,"  -80"
2016-08-15T14:53:32.048Z,"  -70"
2016-08-15T14:58:29.674Z,"  -70"
2016-08-15T15:03:27.263Z,"  -73"
2016-08-15T15:08:25.703Z,"  -72"
2016-08-15T15:13:23.167Z,"  -70"
2016-08-15T15:18:20.757Z,"  -72"
2016-08-15T15:23:18.432Z,"  -71"
2016-08-15T15:28:16.090Z,"  -74"
2016-08-15T15:33:13.781Z,"  -74"
2016-08-15T15:38:11.362Z,"  -71"
2016-08-15T15:43:09.147Z,"  -73"
2016-08-15T15:48:06.616Z,"  -74"
2016-08-15T15:53:04.283Z,"  -73"
2016-08-15T15:58:01.884Z,"  -74"
2016-08-15T16:02:59.597Z,"  -74"
2016-08-15T16:07:57.278Z,"  -72"
2016-08-15T16:12:54.752Z,"  -70"
2016-08-15T16:17:52.305Z,"  -73"
2016-08-15T16:22:49.930Z,"  -76"
2016-08-15T16:27:47.726Z,"  -76"
2016-08-15T16:32:45.447Z,"  -74"
2016-08-15T16:37:43.017Z,"  -74"
2016-08-15T16:42:40.880Z,"  -73"
2016-08-15T16:47:38.353Z,"  -73"
2016-08-15T16:52:36.159Z,"  -73"
2016-08-15T16:57:33.636Z,"  -75"
2016-08-15T17:02:31.278Z,"  -73"
2016-08-15T17:07:29.128Z,"  -71"
2016-08-15T17:12:26.859Z,"  -70"
2016-08-15T17:17:24.562Z,"  -71"
2016-08-15T17:22:22.222Z,"  -68"
2016-08-15T17:27:19.831Z,"  -69"
2016-08-15T17:32:17.415Z,"  -72"
2016-08-15T17:37:15.280Z,"  -72"
2016-08-15T17:42:12.950Z,"  -69"
2016-08-15T17:47:10.567Z,"  -72"
2016-08-15T17:52:08.168Z,"  -71"
2016-08-15T17:57:05.940Z,"  -70"
2016-08-15T18:02:03.313Z,"  -71"
2016-08-15T18:07:00.796Z,"  -71"
2016-08-15T18:11:58.402Z,"  -70"
2016-08-15T18:16:56.018Z,"  -71"
2016-08-15T18:21:53.525Z,"  -71"
2016-08-15T18:26:51.111Z,"  -70"
2016-08-15T18:31:48.807Z,"  -71"
2016-08-15T18:36:46.559Z,"  -71"
2016-08-15T18:41:44.083Z,"  -70"
2016-08-15T18:46:41.577Z,"  -71"
2016-08-15T18:51:39.340Z,"  -70"
2016-08-15T18:56:36.614Z,"  -70"
2016-08-15T19:01:34.143Z,"  -71"
2016-08-15T19:06:31.725Z,"  -72"
2016-08-15T19:11:29.365Z,"  -73"
2016-08-15T19:16:27.288Z,"  -74"
2016-08-15T19:21:24.785Z,"  -73"
2016-08-15T19:26:22.323Z,"  -73"
2016-08-15T19:31:19.736Z,"  -73"
2016-08-15T19:36:17.307Z,"  -70"
2016-08-15T19:41:14.962Z,"  -69"
2016-08-15T19:46:12.615Z,"  -69"
2016-08-15T19:51:10.139Z,"  -69"
2016-08-15T19:56:07.957Z,"  -69"
2016-08-15T20:01:05.609Z,"  -69"
2016-08-15T20:06:03.624Z,"  -70"
2016-08-15T20:11:01.237Z,"  -69"
2016-08-15T20:15:58.655Z,"  -69"
2016-08-15T20:20:56.241Z,"  -67"
2016-08-15T20:25:53.931Z,"  -67"
2016-08-15T20:30:51.704Z,"  -67"
2016-08-15T20:35:49.317Z,"  -67"
2016-08-15T20:40:46.962Z,"  -66"
2016-08-15T20:45:44.677Z,"  -67"
2016-08-15T20:50:42.356Z,"  -67"
2016-08-15T20:55:40.155Z,"  -67"
2016-08-15T21:00:37.626Z,"  -67"
2016-08-15T21:05:35.268Z,"  -67"
2016-08-15T21:10:32.970Z,"  -67"
2016-08-15T21:15:30.506Z,"  -67"
2016-08-15T21:20:27.977Z,"  -67"
2016-08-15T21:25:25.435Z,"  -66"
2016-08-15T21:30:23.148Z,"  -67"
2016-08-15T21:35:20.873Z,"  -69"
2016-08-15T21:40:18.775Z,"  -68"
2016-08-15T21:45:16.446Z,"  -66"
2016-08-15T21:50:14.077Z,"  -69"
2016-08-15T21:55:11.706Z,"  -67"
2016-08-15T22:00:09.300Z,"  -67"
2016-08-15T22:05:07.153Z,"  -69"
2016-08-15T22:10:04.758Z,"  -66"
2016-08-15T22:15:02.705Z,"  -67"
2016-08-15T22:20:00.292Z,"  -69"
2016-08-15T22:24:58.069Z,"  -66"
2016-08-15T22:29:55.721Z,"  -67"
2016-08-15T22:34:53.443Z,"  -66"
2016-08-15T22:39:51.292Z,"  -68"
2016-08-15T22:44:49.060Z,"  -67"
2016-08-15T22:49:46.704Z,"  -67"
2016-08-15T22:54:44.601Z,"  -66"
2016-08-15T22:59:42.134Z,"  -67"
2016-08-15T23:04:39.653Z,"  -68"
2016-08-15T23:09:37.296Z,"  -67"
2016-08-15T23:14:34.975Z,"  -66"
2016-08-15T23:19:32.476Z,"  -66"
2016-08-15T23:24:30.381Z,"  -67"
2016-08-15T23:29:28.223Z,"  -67"
2016-08-15T23:34:26.023Z,"  -66"
2016-08-15T23:39:23.911Z,"  -68"
2016-08-15T23:44:21.505Z,"  -68"
2016-08-15T23:49:19.126Z,"  -66"
2016-08-15T23:54:16.621Z,"  -67"
2016-08-15T23:59:14.346Z,"  -67"
